Terminal Aerodrome Forecast
Issued by NWS Twin Cities, MN

Home | Current Version | Previous Version | Graphics & Text | Print | Product List | Glossary On
Versions: 1 2 3 4 5 6 7 8 9 10 11 12 13 14 15 16 17 18 19 20 21 22 23 24 25 26 27 28
000
FTUS43 KMPX 230523
TAFMSP
TAF
KMSP 230523Z 2306/2412 10005KT P6SM SCT250
     FM231400 11008KT P6SM VCSH SCT070 BKN110
     FM231800 13012G19KT P6SM SCT040 BKN090
      TEMPO 2323/2402 3SM TSRA BKN035CB
     FM240300 17009KT P6SM BKN060
     FM240600 24006KT P6SM SCT060 BKN100=

USA.gov is the U.S. government's official web portal to all federal, state and local government web resources and services.